createdAt,value
2022-11-28T00:00:28.119Z,5.07
2022-11-28T00:01:29.481Z,6.30
2022-11-28T00:02:30.925Z,6.40
2022-11-28T00:03:32.389Z,7.10
2022-11-28T00:04:33.960Z,7.30
2022-11-28T00:05:35.595Z,6.47
2022-11-28T00:06:41.410Z,5.67
2022-11-28T00:07:42.882Z,5.37
2022-11-28T00:08:44.411Z,5.83
2022-11-28T00:09:45.713Z,5.77
2022-11-28T00:10:47.096Z,4.70
2022-11-28T00:11:49.040Z,4.73
2022-11-28T00:12:50.423Z,5.70
2022-11-28T00:13:51.891Z,6.27
2022-11-28T00:14:53.198Z,5.13
2022-11-28T00:15:55.504Z,4.83
2022-11-28T00:16:56.822Z,4.60
2022-11-28T00:17:58.251Z,4.70
2022-11-28T00:19:00.371Z,4.57
2022-11-28T00:20:01.686Z,4.87
2022-11-28T00:21:06.979Z,5.30
2022-11-28T00:22:08.420Z,5.80
2022-11-28T00:23:09.808Z,5.70
2022-11-28T00:24:11.228Z,5.33
2022-11-28T00:25:12.531Z,5.33
2022-11-28T00:26:24.705Z,5.80
2022-11-28T00:27:26.065Z,4.97
2022-11-28T00:28:27.867Z,4.93
2022-11-28T00:29:29.200Z,5.23
2022-11-28T00:30:30.527Z,5.27
2022-11-28T00:31:36.332Z,5.77
2022-11-28T00:32:37.816Z,5.57
2022-11-28T00:33:39.149Z,4.77
2022-11-28T00:34:40.755Z,5.30
2022-11-28T00:35:42.335Z,6.50
2022-11-28T00:36:45.207Z,6.67
2022-11-28T00:37:46.572Z,5.43
2022-11-28T00:38:48.003Z,4.83
2022-11-28T00:39:49.381Z,8.43
2022-11-28T00:40:57.895Z,5.47
2022-11-28T00:41:59.417Z,4.80
2022-11-28T00:43:00.733Z,5.93
2022-11-28T00:44:02.216Z,5.87
2022-11-28T00:45:03.719Z,4.80
2022-11-28T00:46:05.204Z,6.07
2022-11-28T00:47:06.801Z,4.33
2022-11-28T00:48:08.105Z,4.43
2022-11-28T00:49:09.511Z,5.93
2022-11-28T00:50:10.924Z,4.93
2022-11-28T00:51:16.041Z,6.83
2022-11-28T00:52:17.360Z,6.90
2022-11-28T00:53:19.048Z,5.93
2022-11-28T00:54:20.360Z,5.30
2022-11-28T00:55:21.716Z,4.97
2022-11-28T00:56:24.514Z,5.77
2022-11-28T00:57:29.392Z,5.70
2022-11-28T00:58:34.348Z,5.77
2022-11-28T00:59:35.841Z,4.57
2022-11-28T01:00:37.276Z,6.23
2022-11-28T01:01:40.373Z,5.70
2022-11-28T01:02:41.886Z,4.97
2022-11-28T01:03:43.509Z,6.13
2022-11-28T01:04:44.866Z,5.70
2022-11-28T01:05:46.223Z,4.90
2022-11-28T01:06:49.071Z,5.43
2022-11-28T01:07:50.435Z,5.57
2022-11-28T01:08:51.991Z,5.60
2022-11-28T01:09:53.315Z,6.23
2022-11-28T01:10:54.638Z,4.83
2022-11-28T01:11:56.438Z,5.73
2022-11-28T01:12:57.860Z,5.67
2022-11-28T01:14:00.459Z,5.30
2022-11-28T01:15:01.764Z,6.53
2022-11-28T01:16:03.184Z,4.00
2022-11-28T01:17:04.641Z,5.70
2022-11-28T01:18:06.036Z,5.03
2022-11-28T01:19:07.459Z,5.30
2022-11-28T01:20:09.198Z,5.17
2022-11-28T01:21:10.587Z,5.00
2022-11-28T01:22:12.049Z,5.33
2022-11-28T01:23:13.394Z,5.60
2022-11-28T01:24:15.074Z,5.30
2022-11-28T01:25:16.450Z,6.17
2022-11-28T01:26:19.248Z,5.93
2022-11-28T01:27:20.558Z,6.03
2022-11-28T01:28:21.958Z,6.53
2022-11-28T01:29:23.285Z,6.23
2022-11-28T01:30:24.731Z,5.60
2022-11-28T01:31:27.308Z,5.07
2022-11-28T01:32:28.661Z,5.80
2022-11-28T01:33:30.394Z,5.60
2022-11-28T01:34:31.896Z,6.67
2022-11-28T01:35:33.206Z,7.00
2022-11-28T01:36:34.517Z,5.93
2022-11-28T01:37:35.857Z,5.77
2022-11-28T01:38:37.173Z,5.10
2022-11-28T01:39:38.552Z,6.03
2022-11-28T01:40:44.578Z,6.23
2022-11-28T01:41:45.922Z,5.40
2022-11-28T01:42:47.409Z,5.87
2022-11-28T01:44:03.607Z,4.80
2022-11-28T01:45:16.680Z,5.70
2022-11-28T01:46:18.047Z,5.50
2022-11-28T01:47:25.161Z,6.13
2022-11-28T01:48:29.076Z,5.90
2022-11-28T01:49:33.383Z,5.57
2022-11-28T01:50:35.297Z,5.10
2022-11-28T01:51:37.921Z,4.80
2022-11-28T01:52:40.759Z,5.63
2022-11-28T01:53:45.682Z,5.80
2022-11-28T01:54:49.075Z,7.20
2022-11-28T01:55:56.255Z,5.10
2022-11-28T01:57:01.990Z,6.13
2022-11-28T01:58:03.626Z,6.53
2022-11-28T01:59:06.964Z,5.60
2022-11-28T02:00:11.444Z,5.67
2022-11-28T02:01:16.828Z,5.90
2022-11-28T02:02:20.727Z,5.97
2022-11-28T02:03:25.893Z,6.00
2022-11-28T02:04:27.813Z,5.77
2022-11-28T02:05:29.308Z,5.60
2022-11-28T02:06:31.241Z,6.20
2022-11-28T02:07:33.429Z,6.13
2022-11-28T02:08:35.408Z,5.47
2022-11-28T02:09:36.747Z,5.70
2022-11-28T02:10:56.349Z,5.97
2022-11-28T02:12:13.411Z,6.10
2022-11-28T02:13:35.906Z,6.23
2022-11-28T02:14:46.334Z,6.23
2022-11-28T02:15:50.689Z,6.03
2022-11-28T02:16:58.250Z,7.07
2022-11-28T02:18:18.459Z,5.77
2022-11-28T02:19:38.575Z,5.60
2022-11-28T02:20:51.986Z,6.47
2022-11-28T02:22:05.461Z,5.67
2022-11-28T02:23:15.503Z,5.77
2022-11-28T02:24:19.820Z,6.27
2022-11-28T02:25:42.911Z,7.60
2022-11-28T02:26:50.295Z,6.03
2022-11-28T02:28:16.327Z,6.23
2022-11-28T02:29:36.505Z,5.70
2022-11-28T02:30:50.434Z,7.33
2022-11-28T02:32:01.474Z,5.87
2022-11-28T02:33:12.692Z,6.23
2022-11-28T02:34:19.579Z,5.57
2022-11-28T02:35:33.747Z,5.63
2022-11-28T02:36:38.510Z,7.53
2022-11-28T02:37:39.865Z,5.77
2022-11-28T02:38:59.809Z,5.23
2022-11-28T02:40:16.475Z,5.10
2022-11-28T02:41:36.123Z,5.80
2022-11-28T02:43:03.874Z,5.37
2022-11-28T02:44:25.479Z,6.67
2022-11-28T02:45:32.561Z,6.50
2022-11-28T02:46:37.461Z,6.63
2022-11-28T02:47:43.540Z,5.97
2022-11-28T02:49:03.302Z,6.30
2022-11-28T02:50:07.359Z,5.47
2022-11-28T02:51:11.686Z,5.53
2022-11-28T02:52:15.236Z,5.90
2022-11-28T02:53:19.375Z,7.20
2022-11-28T02:54:21.657Z,5.70
2022-11-28T02:55:24.046Z,5.77
2022-11-28T02:56:25.757Z,6.30
2022-11-28T02:57:37.470Z,5.90
2022-11-28T02:58:38.914Z,6.90
2022-11-28T02:59:43.343Z,6.80
2022-11-28T03:00:46.358Z,6.23
2022-11-28T03:01:47.818Z,7.43
2022-11-28T03:02:53.956Z,6.20
2022-11-28T03:04:03.251Z,6.97
2022-11-28T03:05:13.663Z,6.00
2022-11-28T03:06:47.498Z,6.67
2022-11-28T03:08:10.572Z,5.60
2022-11-28T03:09:30.061Z,6.10
2022-11-28T03:10:37.597Z,7.07
2022-11-28T03:11:46.551Z,7.03
2022-11-28T03:12:56.017Z,7.57
2022-11-28T03:14:01.208Z,6.43
2022-11-28T03:15:04.605Z,6.00
2022-11-28T03:16:11.900Z,6.50
2022-11-28T03:17:18.834Z,6.93
2022-11-28T03:18:24.665Z,6.30
2022-11-28T03:19:29.395Z,6.50
2022-11-28T03:20:42.915Z,6.60
2022-11-28T03:21:56.509Z,7.23
2022-11-28T03:23:19.555Z,5.90
2022-11-28T03:24:37.707Z,6.27
2022-11-28T03:25:51.674Z,7.03
2022-11-28T03:26:58.493Z,6.10
2022-11-28T03:27:59.786Z,8.90
2022-11-28T03:29:06.750Z,6.50
2022-11-28T03:30:16.899Z,6.97
2022-11-28T03:31:24.261Z,6.63
2022-11-28T03:32:30.342Z,6.77
2022-11-28T03:33:33.688Z,6.33
2022-11-28T03:34:37.262Z,7.13
2022-11-28T03:35:42.599Z,6.60
2022-11-28T03:36:46.456Z,6.83
2022-11-28T03:37:49.375Z,7.40
2022-11-28T03:38:54.271Z,6.90
2022-11-28T03:39:59.168Z,6.17
2022-11-28T03:41:03.071Z,6.67
2022-11-28T03:42:07.515Z,7.60
2022-11-28T03:43:11.101Z,6.97
2022-11-28T03:44:16.955Z,7.47
2022-11-28T03:45:18.391Z,7.03
2022-11-28T03:46:21.830Z,8.20
2022-11-28T03:47:26.710Z,6.47
2022-11-28T03:48:30.727Z,6.23
2022-11-28T03:49:33.637Z,6.97
2022-11-28T03:50:37.495Z,7.47
2022-11-28T03:51:54.916Z,6.33
2022-11-28T03:52:59.657Z,6.83
2022-11-28T03:54:05.112Z,7.60
2022-11-28T03:55:10.501Z,6.77
2022-11-28T03:56:14.783Z,6.87
2022-11-28T03:57:19.588Z,7.13
2022-11-28T03:58:26.665Z,6.70
2022-11-28T03:59:34.129Z,8.23
2022-11-28T04:00:37.055Z,7.27
2022-11-28T04:01:50.629Z,6.70
2022-11-28T04:02:59.955Z,6.73
2022-11-28T04:04:04.036Z,6.50
2022-11-28T04:05:08.527Z,6.53
2022-11-28T04:06:15.940Z,9.67
2022-11-28T04:07:27.156Z,6.87
2022-11-28T04:08:32.892Z,7.93
2022-11-28T04:09:34.352Z,6.50
2022-11-28T04:10:39.443Z,6.97
2022-11-28T04:11:44.983Z,7.53
2022-11-28T04:13:06.595Z,7.57
2022-11-28T04:14:17.234Z,7.23
2022-11-28T04:15:26.910Z,7.73
2022-11-28T04:16:34.957Z,7.20
2022-11-28T04:17:39.728Z,6.93
2022-11-28T04:18:44.139Z,9.80
2022-11-28T04:19:54.126Z,7.60
2022-11-28T04:20:55.535Z,6.70
2022-11-28T04:22:03.091Z,7.00
2022-11-28T04:23:10.505Z,8.00
2022-11-28T04:24:14.838Z,6.97
2022-11-28T04:25:17.808Z,6.77
2022-11-28T04:26:23.280Z,7.07
2022-11-28T04:27:28.850Z,7.53
2022-11-28T04:28:31.754Z,7.67
2022-11-28T04:29:35.579Z,7.23
2022-11-28T04:30:38.040Z,7.30
2022-11-28T04:31:40.433Z,7.63
2022-11-28T04:32:45.964Z,7.90
2022-11-28T04:33:50.579Z,10.23
2022-11-28T04:34:56.878Z,8.67
2022-11-28T04:35:59.107Z,8.93
2022-11-28T04:37:04.272Z,9.90
2022-11-28T04:38:10.755Z,10.73
2022-11-28T04:39:14.612Z,11.23
2022-11-28T04:40:17.356Z,9.97
2022-11-28T04:41:20.485Z,10.97
2022-11-28T04:42:33.584Z,10.80
2022-11-28T04:43:57.206Z,10.37
2022-11-28T04:45:02.614Z,12.73
2022-11-28T04:46:15.204Z,21.23
2022-11-28T04:47:17.094Z,18.33
2022-11-28T04:48:18.497Z,15.83
2022-11-28T04:49:20.032Z,12.07
2022-11-28T04:50:23.489Z,8.83
2022-11-28T04:51:30.605Z,8.60
2022-11-28T04:52:39.991Z,8.27
2022-11-28T04:53:50.722Z,9.50
2022-11-28T04:54:52.094Z,7.20
2022-11-28T04:55:57.786Z,8.00
2022-11-28T04:56:59.089Z,7.00
2022-11-28T04:58:13.219Z,7.43
2022-11-28T04:59:14.813Z,7.50
2022-11-28T05:00:18.615Z,7.00
2022-11-28T05:01:23.419Z,9.03
2022-11-28T05:02:25.934Z,6.83
2022-11-28T05:03:30.746Z,7.17
2022-11-28T05:04:34.810Z,7.30
2022-11-28T05:05:44.009Z,8.10
2022-11-28T05:06:45.565Z,8.57
2022-11-28T05:07:47.036Z,7.60
2022-11-28T05:08:48.533Z,7.00
2022-11-28T05:09:50.567Z,8.10
2022-11-28T05:10:52.059Z,7.53
2022-11-28T05:11:53.382Z,8.93
2022-11-28T05:12:54.717Z,8.10
2022-11-28T05:13:56.102Z,8.10
2022-11-28T05:14:57.431Z,7.30
2022-11-28T05:16:00.195Z,7.13
2022-11-28T05:17:01.552Z,7.47
2022-11-28T05:18:03.019Z,9.07
2022-11-28T05:19:04.351Z,7.60
2022-11-28T05:20:06.525Z,7.93
2022-11-28T05:21:08.955Z,7.73
2022-11-28T05:22:10.298Z,8.57
2022-11-28T05:23:11.746Z,8.03
2022-11-28T05:24:13.239Z,7.53
2022-11-28T05:25:14.629Z,9.70
2022-11-28T05:26:17.573Z,7.77
2022-11-28T05:27:18.948Z,9.07
2022-11-28T05:28:20.400Z,8.77
2022-11-28T05:29:21.721Z,7.63
2022-11-28T05:30:23.113Z,8.10
2022-11-28T05:31:24.492Z,7.87
2022-11-28T05:32:28.633Z,8.27
2022-11-28T05:33:30.584Z,7.80
2022-11-28T05:34:31.932Z,8.93
2022-11-28T05:35:33.360Z,8.40
2022-11-28T05:36:34.740Z,11.80
2022-11-28T05:37:36.321Z,11.80
2022-11-28T05:38:37.794Z,8.00
2022-11-28T05:39:39.184Z,8.73
2022-11-28T05:40:44.177Z,7.90
2022-11-28T05:41:45.533Z,8.30
2022-11-28T05:42:46.965Z,8.43
2022-11-28T05:43:48.548Z,9.67
2022-11-28T05:44:50.383Z,7.10
2022-11-28T05:45:51.916Z,8.07
2022-11-28T05:46:53.240Z,8.80
2022-11-28T05:47:54.666Z,8.00
2022-11-28T05:48:56.377Z,8.43
2022-11-28T05:49:57.856Z,9.97
2022-11-28T05:50:59.238Z,9.13
2022-11-28T05:52:00.562Z,8.03
2022-11-28T05:53:01.863Z,8.30
2022-11-28T05:54:03.259Z,7.97
2022-11-28T05:55:04.870Z,8.77
2022-11-28T05:56:06.911Z,8.63
2022-11-28T05:57:08.278Z,9.50
2022-11-28T05:58:09.764Z,9.40
2022-11-28T05:59:12.315Z,10.03
2022-11-28T06:00:14.378Z,9.83
2022-11-28T06:01:17.853Z,9.40
2022-11-28T06:02:19.225Z,10.53
2022-11-28T06:03:20.713Z,8.60
2022-11-28T06:04:22.226Z,8.60
2022-11-28T06:05:41.603Z,9.73
2022-11-28T06:06:44.348Z,8.07
2022-11-28T06:07:45.863Z,8.77
2022-11-28T06:08:48.162Z,8.40
2022-11-28T06:09:49.498Z,12.10
2022-11-28T06:10:58.080Z,8.73
2022-11-28T06:11:59.425Z,8.10
2022-11-28T06:13:00.882Z,8.03
2022-11-28T06:14:02.979Z,10.03
2022-11-28T06:15:04.605Z,9.37
2022-11-28T06:16:09.933Z,9.67
2022-11-28T06:17:11.396Z,8.27
2022-11-28T06:18:12.717Z,10.17
2022-11-28T06:19:14.482Z,8.87
2022-11-28T06:20:16.041Z,8.63
2022-11-28T06:21:17.676Z,8.97
2022-11-28T06:22:26.758Z,8.60
2022-11-28T06:23:28.999Z,10.73
2022-11-28T06:24:30.842Z,10.17
2022-11-28T06:25:32.478Z,9.97
2022-11-28T06:26:33.871Z,13.77
2022-11-28T06:27:35.466Z,13.77
2022-11-28T06:28:36.963Z,11.70
2022-11-28T06:29:38.325Z,10.70
2022-11-28T06:30:42.595Z,10.03
2022-11-28T06:31:44.163Z,8.60
2022-11-28T06:32:45.504Z,10.03
2022-11-28T06:33:47.206Z,9.77
2022-11-28T06:34:48.550Z,9.20
2022-11-28T06:35:49.894Z,10.13
2022-11-28T06:36:51.250Z,8.13
2022-11-28T06:37:52.631Z,8.47
2022-11-28T06:38:54.325Z,11.53
2022-11-28T06:39:55.805Z,10.00
2022-11-28T06:41:01.029Z,9.13
2022-11-28T06:42:02.494Z,9.37
2022-11-28T06:43:03.833Z,12.67
2022-11-28T06:44:05.169Z,11.13
2022-11-28T06:45:06.868Z,9.80
2022-11-28T06:46:16.386Z,9.33
2022-11-28T06:47:17.968Z,10.07
2022-11-28T06:48:19.701Z,8.87
2022-11-28T06:49:21.110Z,8.87
2022-11-28T06:50:22.453Z,9.43
2022-11-28T06:51:23.798Z,10.37
2022-11-28T06:52:25.211Z,9.40
2022-11-28T06:53:31.302Z,9.67
2022-11-28T06:54:33.038Z,10.90
2022-11-28T06:55:34.452Z,9.70
2022-11-28T06:56:35.792Z,10.67
2022-11-28T06:57:38.101Z,9.13
2022-11-28T06:58:39.618Z,10.40
2022-11-28T06:59:41.244Z,9.17
2022-11-28T07:00:42.916Z,11.27
2022-11-28T07:01:45.204Z,12.10
2022-11-28T07:02:46.725Z,9.33
2022-11-28T07:03:48.385Z,9.50
2022-11-28T07:04:49.718Z,9.73
2022-11-28T07:05:51.004Z,10.23
2022-11-28T07:06:52.320Z,9.67
2022-11-28T07:07:54.754Z,9.03
2022-11-28T07:08:57.449Z,9.27
2022-11-28T07:09:58.847Z,10.57
2022-11-28T07:11:09.237Z,10.37
2022-11-28T07:12:10.573Z,11.23
2022-11-28T07:13:11.897Z,10.67
2022-11-28T07:14:13.353Z,10.00
2022-11-28T07:15:14.949Z,10.60
2022-11-28T07:16:29.845Z,10.00
2022-11-28T07:17:31.284Z,9.50
2022-11-28T07:18:32.978Z,10.30
2022-11-28T07:19:34.402Z,8.83
2022-11-28T07:20:35.700Z,10.37
2022-11-28T07:21:37.012Z,9.53
2022-11-28T07:22:38.324Z,9.27
2022-11-28T07:23:39.633Z,10.13
2022-11-28T07:24:40.979Z,8.90
2022-11-28T07:25:42.482Z,9.47
2022-11-28T07:26:44.300Z,9.07
2022-11-28T07:27:45.747Z,12.17
2022-11-28T07:28:47.576Z,9.70
2022-11-28T07:29:48.892Z,10.97
2022-11-28T07:30:57.497Z,8.70
2022-11-28T07:31:58.823Z,11.97
2022-11-28T07:33:00.235Z,11.53
2022-11-28T07:34:03.333Z,11.17
2022-11-28T07:35:06.647Z,11.27
2022-11-28T07:36:11.314Z,11.17
2022-11-28T07:37:13.090Z,13.73
2022-11-28T07:38:14.398Z,10.67
2022-11-28T07:39:16.118Z,10.87
2022-11-28T07:40:19.633Z,9.00
2022-11-28T07:41:26.211Z,11.13
2022-11-28T07:42:28.039Z,9.63
2022-11-28T07:43:38.130Z,12.10
2022-11-28T07:44:39.508Z,10.70
2022-11-28T07:45:59.226Z,9.87
2022-11-28T07:47:01.814Z,8.90
2022-11-28T07:48:03.154Z,9.87
2022-11-28T07:49:04.541Z,11.23
2022-11-28T07:50:06.222Z,9.90
2022-11-28T07:51:11.426Z,10.00
2022-11-28T07:52:12.731Z,10.37
2022-11-28T07:53:14.446Z,10.77
2022-11-28T07:54:15.750Z,11.00
2022-11-28T07:55:17.189Z,10.20
2022-11-28T07:56:22.086Z,9.87
2022-11-28T07:57:23.423Z,10.50
2022-11-28T07:58:24.793Z,11.13
2022-11-28T07:59:26.187Z,12.30
2022-11-28T08:00:27.649Z,11.47
2022-11-28T08:01:30.860Z,10.00
2022-11-28T08:02:33.312Z,11.33
2022-11-28T08:03:34.756Z,19.03
2022-11-28T08:04:36.542Z,10.87
2022-11-28T08:05:37.973Z,14.57
2022-11-28T08:06:40.681Z,12.33
2022-11-28T08:07:42.057Z,12.60
2022-11-28T08:08:43.854Z,12.03
2022-11-28T08:09:45.588Z,11.57
2022-11-28T08:10:47.181Z,11.63
2022-11-28T08:11:49.189Z,12.43
2022-11-28T08:12:50.547Z,11.23
2022-11-28T08:13:53.826Z,10.43
2022-11-28T08:14:57.836Z,11.53
2022-11-28T08:16:02.794Z,11.07
2022-11-28T08:17:04.140Z,12.60
2022-11-28T08:18:06.363Z,11.63
2022-11-28T08:19:07.728Z,11.47
2022-11-28T08:20:09.367Z,13.33
2022-11-28T08:21:12.175Z,13.97
2022-11-28T08:22:13.503Z,12.77
2022-11-28T08:23:14.955Z,16.10
2022-11-28T08:24:16.282Z,15.97
2022-11-28T08:25:17.594Z,19.53
2022-11-28T08:26:20.571Z,14.60
2022-11-28T08:27:21.867Z,12.80
2022-11-28T08:28:23.176Z,14.93
2022-11-28T08:29:24.538Z,15.20
2022-11-28T08:30:26.130Z,24.83
2022-11-28T08:31:32.301Z,27.60
2022-11-28T08:32:33.676Z,22.30
2022-11-28T08:33:35.032Z,22.97
2022-11-28T08:34:36.435Z,18.90
2022-11-28T08:35:39.245Z,19.10
2022-11-28T08:36:40.696Z,18.17
2022-11-28T08:37:42.126Z,19.07
2022-11-28T08:39:02.932Z,20.13
2022-11-28T08:40:08.228Z,29.50
2022-11-28T08:41:10.819Z,24.23
2022-11-28T08:42:12.213Z,22.57
2022-11-28T08:43:14.599Z,25.07
2022-11-28T08:44:16.199Z,23.53
2022-11-28T08:45:17.575Z,22.07
2022-11-28T08:46:20.442Z,22.67
2022-11-28T08:47:21.890Z,17.53
2022-11-28T08:48:23.298Z,19.90
2022-11-28T08:49:24.683Z,28.10
2022-11-28T08:50:26.005Z,24.27
2022-11-28T08:51:27.463Z,23.20
2022-11-28T08:52:28.841Z,21.60
2022-11-28T08:53:30.257Z,20.53
2022-11-28T08:54:31.819Z,20.37
2022-11-28T08:55:35.578Z,23.57
2022-11-28T08:56:40.600Z,18.77
2022-11-28T08:57:41.991Z,17.07
2022-11-28T08:58:43.381Z,15.57
2022-11-28T08:59:45.131Z,15.07
2022-11-28T09:00:46.747Z,15.33
2022-11-28T09:01:48.256Z,16.13
2022-11-28T09:02:49.599Z,25.27
2022-11-28T09:03:51.494Z,22.17
2022-11-28T09:04:52.870Z,30.30
2022-11-28T09:05:59.446Z,23.43
2022-11-28T09:07:00.920Z,21.77
2022-11-28T09:08:02.295Z,19.63
2022-11-28T09:09:03.751Z,19.30
2022-11-28T09:10:05.387Z,16.23
2022-11-28T09:11:10.755Z,15.03
2022-11-28T09:12:12.082Z,14.90
2022-11-28T09:13:14.540Z,16.07
2022-11-28T09:14:15.883Z,13.63
2022-11-28T09:15:18.952Z,13.57
2022-11-28T09:16:20.387Z,16.00
2022-11-28T09:17:21.815Z,16.87
2022-11-28T09:18:23.289Z,16.60
2022-11-28T09:19:24.625Z,15.40
2022-11-28T09:20:26.084Z,15.23
2022-11-28T09:21:27.388Z,16.07
2022-11-28T09:22:29.273Z,17.73
2022-11-28T09:23:30.918Z,15.83
2022-11-28T09:24:32.351Z,15.90
2022-11-28T09:25:36.760Z,14.80
2022-11-28T09:26:38.083Z,13.73
2022-11-28T09:27:39.395Z,13.80
2022-11-28T09:28:40.769Z,14.70
2022-11-28T09:29:42.311Z,15.87
2022-11-28T09:30:44.655Z,14.23
2022-11-28T09:31:47.663Z,14.27
2022-11-28T09:32:49.800Z,17.90
2022-11-28T09:33:51.123Z,14.73
2022-11-28T09:34:52.507Z,15.37
2022-11-28T09:35:55.447Z,13.67
2022-11-28T09:36:59.662Z,13.40
2022-11-28T09:38:03.595Z,15.67
2022-11-28T09:39:05.000Z,13.97
2022-11-28T09:40:13.138Z,14.10
2022-11-28T09:41:23.919Z,13.17
2022-11-28T09:42:30.372Z,13.57
2022-11-28T09:43:31.734Z,15.93
2022-11-28T09:44:47.667Z,14.37
2022-11-28T09:45:53.867Z,16.50
2022-11-28T09:46:56.776Z,13.47
2022-11-28T09:48:01.077Z,13.83
2022-11-28T09:49:07.736Z,15.87
2022-11-28T09:50:16.540Z,12.87
2022-11-28T09:51:36.963Z,13.57
2022-11-28T09:53:04.715Z,13.77
2022-11-28T09:54:11.138Z,15.70
2022-11-28T09:55:24.241Z,13.30
2022-11-28T09:56:25.728Z,12.97
2022-11-28T09:57:33.382Z,14.43
2022-11-28T09:58:49.977Z,17.53
2022-11-28T09:59:51.372Z,20.93
2022-11-28T10:00:55.355Z,17.50
2022-11-28T10:02:09.588Z,12.87
2022-11-28T10:03:16.836Z,14.17
2022-11-28T10:04:21.516Z,14.37
2022-11-28T10:05:25.960Z,14.10
2022-11-28T10:06:30.770Z,14.07
2022-11-28T10:07:36.615Z,13.57
2022-11-28T10:08:40.792Z,14.27
2022-11-28T10:10:00.834Z,15.13
2022-11-28T10:11:23.050Z,13.80
2022-11-28T10:12:36.413Z,14.00
2022-11-28T10:14:07.894Z,12.93
2022-11-28T10:15:16.132Z,15.33
2022-11-28T10:16:20.493Z,12.70
2022-11-28T10:17:28.062Z,12.97
2022-11-28T10:18:41.219Z,12.77
2022-11-28T10:19:55.367Z,12.53
2022-11-28T10:21:02.794Z,11.63
2022-11-28T10:22:07.173Z,14.80
2022-11-28T10:23:16.154Z,12.70
2022-11-28T10:24:20.601Z,11.73
2022-11-28T10:25:28.542Z,13.10
2022-11-28T10:26:36.081Z,13.63
2022-11-28T10:27:37.819Z,12.87
2022-11-28T10:28:41.838Z,12.93
2022-11-28T10:29:57.646Z,14.90
2022-11-28T10:31:13.296Z,12.50
2022-11-28T10:32:17.377Z,13.00
2022-11-28T10:33:24.994Z,14.63
2022-11-28T10:34:36.842Z,14.70
2022-11-28T10:35:46.391Z,14.27
2022-11-28T10:37:06.556Z,15.97
2022-11-28T10:38:14.952Z,16.93
2022-11-28T10:39:16.264Z,14.77
2022-11-28T10:40:29.484Z,14.60
2022-11-28T10:41:38.854Z,14.03
2022-11-28T10:42:53.262Z,14.33
2022-11-28T10:44:00.404Z,13.77
2022-11-28T10:45:13.892Z,13.17
2022-11-28T10:46:18.329Z,15.00
2022-11-28T10:47:27.857Z,16.67
2022-11-28T10:49:07.491Z,15.00
2022-11-28T10:50:20.535Z,13.27
2022-11-28T10:51:38.326Z,13.70
2022-11-28T10:52:39.671Z,13.97
2022-11-28T10:53:46.987Z,13.43
2022-11-28T10:55:08.653Z,16.27
2022-11-28T10:56:13.892Z,13.33
2022-11-28T10:57:17.452Z,13.40
2022-11-28T10:58:18.776Z,14.17
2022-11-28T10:59:20.098Z,13.43
2022-11-28T11:00:21.540Z,12.00
2022-11-28T11:01:22.937Z,13.93
2022-11-28T11:02:33.872Z,16.50
2022-11-28T11:03:38.606Z,12.20
2022-11-28T11:04:41.129Z,13.10
2022-11-28T11:05:42.560Z,13.60
2022-11-28T11:07:06.949Z,12.70
2022-11-28T11:08:09.899Z,12.70
2022-11-28T11:09:12.752Z,13.17
2022-11-28T11:10:15.975Z,11.97
2022-11-28T11:11:20.126Z,13.83
2022-11-28T11:12:30.475Z,12.03
2022-11-28T11:13:33.468Z,12.53
2022-11-28T11:14:36.428Z,12.33
2022-11-28T11:15:37.937Z,12.53
2022-11-28T11:16:52.919Z,12.17
2022-11-28T11:17:54.228Z,13.23
2022-11-28T11:18:55.858Z,13.40
2022-11-28T11:19:57.155Z,12.97
2022-11-28T11:21:09.219Z,11.90
2022-11-28T11:22:16.548Z,12.60
2022-11-28T11:23:21.982Z,11.60
2022-11-28T11:24:23.320Z,14.77
2022-11-28T11:25:25.848Z,13.40
2022-11-28T11:26:33.646Z,12.53
2022-11-28T11:27:36.560Z,11.83
2022-11-28T11:28:47.055Z,15.17
2022-11-28T11:29:51.424Z,12.33
2022-11-28T11:31:00.500Z,14.80
2022-11-28T11:32:06.055Z,12.50
2022-11-28T11:33:13.773Z,12.57
2022-11-28T11:34:16.397Z,13.07
2022-11-28T11:35:20.436Z,12.50
2022-11-28T11:36:23.504Z,15.20
2022-11-28T11:37:33.973Z,12.13
2022-11-28T11:38:37.989Z,13.50
2022-11-28T11:39:46.443Z,12.27
2022-11-28T11:40:48.652Z,13.03
2022-11-28T11:41:51.304Z,11.93
2022-11-28T11:42:54.325Z,14.03
2022-11-28T11:43:56.483Z,13.10
2022-11-28T11:45:17.758Z,12.33
2022-11-28T11:46:19.159Z,13.07
2022-11-28T11:47:38.818Z,14.80
2022-11-28T11:48:41.505Z,12.33
2022-11-28T11:49:44.725Z,13.70
2022-11-28T11:50:53.772Z,13.30
2022-11-28T11:52:00.045Z,12.50
2022-11-28T11:53:04.136Z,12.30
2022-11-28T11:54:15.038Z,12.10
2022-11-28T11:55:16.654Z,13.20
2022-11-28T11:56:18.025Z,14.30
2022-11-28T11:57:36.910Z,12.17
2022-11-28T11:58:44.761Z,12.67
2022-11-28T11:59:50.596Z,13.80
2022-11-28T12:00:54.036Z,15.20
2022-11-28T12:01:57.420Z,13.33
2022-11-28T12:03:06.235Z,14.20
2022-11-28T12:04:37.191Z,13.77
2022-11-28T12:05:58.914Z,12.27
2022-11-28T12:07:00.387Z,11.80
2022-11-28T12:08:04.743Z,11.33
2022-11-28T12:09:42.062Z,12.17
2022-11-28T12:10:46.606Z,13.20
2022-11-28T12:11:50.454Z,12.47
2022-11-28T12:12:52.193Z,12.40
2022-11-28T12:13:53.584Z,10.77
2022-11-28T12:14:55.193Z,11.90
2022-11-28T12:15:56.576Z,10.70
2022-11-28T12:17:25.733Z,10.37
2022-11-28T12:18:27.683Z,10.77
2022-11-28T12:19:37.977Z,10.63
2022-11-28T12:20:42.936Z,11.30
2022-11-28T12:22:03.058Z,11.50
2022-11-28T12:23:22.766Z,11.87
2022-11-28T12:24:32.378Z,10.13
2022-11-28T12:25:39.664Z,13.27
2022-11-28T12:26:51.799Z,9.63
2022-11-28T12:28:03.650Z,11.63
2022-11-28T12:29:21.762Z,11.07
2022-11-28T12:30:29.060Z,11.73
2022-11-28T12:31:30.524Z,12.90
2022-11-28T12:32:40.238Z,10.97
2022-11-28T12:34:03.258Z,10.70
2022-11-28T12:35:04.719Z,12.40
2022-11-28T12:36:10.538Z,10.77
2022-11-28T12:37:55.159Z,9.83
2022-11-28T12:39:11.607Z,12.40
2022-11-28T12:40:19.076Z,11.53
2022-11-28T12:41:39.360Z,11.77
2022-11-28T12:42:59.572Z,11.57
2022-11-28T12:44:23.238Z,12.20
2022-11-28T12:45:27.620Z,10.53
2022-11-28T12:46:47.912Z,9.50
2022-11-28T12:47:55.575Z,10.57
2022-11-28T12:49:03.154Z,11.63
2022-11-28T12:50:04.497Z,12.07
2022-11-28T12:51:15.809Z,12.17
2022-11-28T12:52:35.861Z,10.87
2022-11-28T12:53:46.378Z,11.87
2022-11-28T12:54:54.934Z,13.03
2022-11-28T12:56:15.063Z,11.43
2022-11-28T12:57:16.388Z,10.20
2022-11-28T12:58:20.876Z,12.60
2022-11-28T12:59:38.462Z,9.03
2022-11-28T13:00:55.260Z,12.63
2022-11-28T13:02:16.299Z,9.60
2022-11-28T13:03:35.862Z,8.77
2022-11-28T13:04:40.447Z,10.00
2022-11-28T13:05:47.768Z,12.47
2022-11-28T13:07:07.742Z,10.67
2022-11-28T13:08:09.061Z,11.37
2022-11-28T13:09:23.328Z,11.70
2022-11-28T13:10:27.562Z,9.23
2022-11-28T13:11:28.865Z,11.47
2022-11-28T13:13:05.529Z,10.80
2022-11-28T13:14:29.032Z,9.60
2022-11-28T13:15:48.758Z,10.17
2022-11-28T13:16:51.482Z,9.37
2022-11-28T13:17:52.848Z,10.50
2022-11-28T13:18:59.812Z,11.70
2022-11-28T13:20:05.397Z,10.57
2022-11-28T13:21:18.830Z,9.83
2022-11-28T13:22:23.692Z,12.70
2022-11-28T13:23:31.101Z,10.10
2022-11-28T13:24:53.487Z,10.77
2022-11-28T13:26:15.315Z,11.60
2022-11-28T13:27:16.712Z,9.90
2022-11-28T13:28:36.577Z,10.20
2022-11-28T13:29:42.170Z,9.00
2022-11-28T13:30:54.512Z,8.70
2022-11-28T13:32:11.063Z,10.87
2022-11-28T13:33:26.049Z,14.27
2022-11-28T13:34:28.587Z,19.83
2022-11-28T13:35:30.196Z,16.40
2022-11-28T13:39:28.385Z,11.73
2022-11-28T13:40:35.983Z,11.63
2022-11-28T13:42:36.449Z,11.83
2022-11-28T13:43:17.361Z,11.00
2022-11-28T13:44:23.023Z,11.37
2022-11-28T13:45:32.432Z,11.60
2022-11-28T13:46:34.242Z,10.33
2022-11-28T13:47:36.937Z,10.30
2022-11-28T13:50:19.467Z,9.33
2022-11-28T13:51:31.642Z,10.40
2022-11-28T13:52:41.321Z,13.33
2022-11-28T13:53:43.700Z,10.27
2022-11-28T13:54:51.682Z,8.63
2022-11-28T13:56:13.256Z,10.17
2022-11-28T13:57:15.001Z,11.03
2022-11-28T13:58:18.230Z,10.87
2022-11-28T13:59:21.491Z,9.40
2022-11-28T14:00:23.723Z,8.93
2022-11-28T14:01:26.179Z,9.73
2022-11-28T14:02:45.060Z,10.00
2022-11-28T14:03:58.639Z,11.60
2022-11-28T14:05:00.348Z,10.50
2022-11-28T14:06:04.540Z,11.40
2022-11-28T14:07:07.119Z,10.57
2022-11-28T14:08:25.667Z,10.60
2022-11-28T14:09:33.196Z,8.73
2022-11-28T14:10:39.464Z,10.73
2022-11-28T14:11:40.815Z,11.57
2022-11-28T14:12:49.215Z,10.70
2022-11-28T14:14:05.775Z,10.70
2022-11-28T14:15:07.287Z,9.17
2022-11-28T14:16:33.626Z,10.50
2022-11-28T14:17:35.251Z,11.30
2022-11-28T14:18:57.205Z,11.70
2022-11-28T14:20:18.444Z,12.40
2022-11-28T14:21:38.163Z,10.73
2022-11-28T14:22:58.157Z,15.13
2022-11-28T14:24:04.814Z,13.20
2022-11-28T14:25:07.680Z,12.37